OIAM  Mahshahr  Airport

Iran

Add Bookmark
ICAO OIAM
IATA MRX
Type Airport
Status Operational
Latitude
30° 33' 22" N
30.556200
Longitude
49° 9' 6" E
49.151901
Local (DST + 5) UTC (GMT + 4)
Jul 6, 2015 07:17 Jul 6, 2015 02:47
Sunrise-Sunset Local UTC
Begin Civil Twilight 05:47 01:17
Sunrise 06:15 01:45
Sunset 08:20 15:50
End Civil Twilight 08:48 16:18
VFR
VFR
MVFR
MVFR
IFR
IFR
LIFR
LIFR
Unknown
Unavailable

Current Weather

METAR Observed VFR
OIAM 060200Z 27010KT 9999 FEW040 SCT100 31/06 Q0998 Mon, Jul 6, 2015 @ 02:00 UTC
(47 Minutes ago)
Visual Flight Rules
Wind Visibility Clouds Conditions
270° at 10 knots (19 kph) 10 km or more
  • Few at 4,000 ft AGL
  • Scattered at 10,000 ft AGL
  • No significant weather
Temperatures Readings Precipitation
Current Temp
31°C
88°F
Dewpoint
6°C
43°F
Humidity 21%
Altimeter 29.47" Hg
Sea Level Pressure 998 mb
Field Elevation
4 m
13 ft
None Recorded

Additional weather within a 92.6km radius of OIAM

Map ICAO Location
OIAG 54.4km E/NE (067°)
VFR
VFR
MVFR
MVFR
IFR
IFR
LIFR
LIFR
Unknown
Unavailable
-
-

CheckWX.com is intended as a tool to help pilots better visualize weather data. It is not intended as a substitute for an official weather briefing obtained from a Flight Service Station. CheckWX.com does not meet the FAA requirements for an official pre-flight weather briefing. Therefore, it's important that pilots still call and obtain an official FSS pre-flight weather briefing.

© 2007-2015 CheckWX.com
02:47:49 UTC